»·PEaware :: N618BD KPHX-KTUS

N618BD :: KPHX-KTUS

FLIGHT INFORMATION

Flight Status: Arrived
Operator: Privately registered:
United States
More flights under this callsign
Pilot: Anonymous 27579 (27579)
Aircraft: CESSNA 172 SKYHAWK
(C172)
More flights by this aircraft type
Origin: KPHX Phoenix Sky Harbor Intl
United States
Destination: KTUS Tucson Intl
United States
More flights between these airports :: More routes between these airports
Route: +PXR DINGO5
File this flight plan on PilotEdge
Remarks:
Altitude:
(Current/Filed)
7,000ft
Speed:
(Current/Filed)
110kts
Departed: 10-Oct-20 07:56 AM
Arrived: 10-Oct-20 08:59 AM
Distance/Time
Traveled:
95nm/1:03
Distance/Time
To Go:
Arrived

Flight Plot

Page will automatically refresh every two minutes.

Flight plan parsing failed; only flown route is shown


Map Options




Map Legend


Flown Route
Filed Route
Departure Airport
Arrival Airport
Navaid (VOR, NDB)
Fix

Horizontal Profiles

Position Reports

Time Latitude Longitude Heading Altitude Ground
Speed
10-Oct-20 07:17 33.436394 -112.009431 287 1123ft 0kts
10-Oct-20 07:18 33.436394 -112.009431 287 1123ft 0kts
10-Oct-20 07:19 33.436394 -112.009431 287 1123ft 0kts
10-Oct-20 07:20 33.436394 -112.009431 287 1123ft 0kts
10-Oct-20 07:21 33.436394 -112.009431 287 1123ft 0kts
10-Oct-20 07:22 33.436394 -112.009431 287 1123ft 0kts
10-Oct-20 07:23 33.436394 -112.009431 287 1123ft 0kts
10-Oct-20 07:24 33.436394 -112.009431 287 1123ft 0kts
10-Oct-20 07:25 33.436394 -112.009431 287 1123ft 0kts
10-Oct-20 07:26 33.436394 -112.009431 287 1123ft 0kts
10-Oct-20 07:31 33.436430 -112.009250 89 1123ft 0kts
10-Oct-20 07:31 33.436430 -112.009250 89 1123ft 0kts
10-Oct-20 07:33 33.436430 -112.009250 89 1123ft 0kts
10-Oct-20 07:33 33.436430 -112.009250 89 1123ft 0kts
10-Oct-20 07:35 33.436430 -112.009250 89 1123ft 0kts
10-Oct-20 07:35 33.436430 -112.009250 89 1123ft 0kts
10-Oct-20 07:37 33.436430 -112.009250 89 1123ft 0kts
10-Oct-20 07:37 33.436430 -112.009250 89 1123ft 0kts
10-Oct-20 07:38 33.436430 -112.009250 89 1123ft 0kts
10-Oct-20 07:39 33.436430 -112.009250 89 1123ft 0kts
10-Oct-20 07:40 33.436430 -112.009250 89 1123ft 0kts
10-Oct-20 07:41 33.436501 -112.009598 324 1123ft 0kts
10-Oct-20 07:42 33.436501 -112.009598 324 1123ft 0kts
10-Oct-20 07:43 33.436501 -112.009598 324 1123ft 0kts
10-Oct-20 07:44 33.436501 -112.009598 324 1123ft 0kts
10-Oct-20 07:45 33.437308 -112.009963 358 1123ft 13kts
10-Oct-20 07:46 33.439024 -112.012829 269 1123ft 16kts
10-Oct-20 07:47 33.439013 -112.021346 268 1116ft 30kts
10-Oct-20 07:48 33.439091 -112.029246 277 1109ft 4kts
10-Oct-20 07:49 33.439124 -112.029524 326 1109ft 0kts
10-Oct-20 07:50 33.439124 -112.029524 326 1109ft 0kts
10-Oct-20 07:51 33.439124 -112.029524 326 1109ft 0kts
10-Oct-20 07:52 33.439124 -112.029524 326 1109ft 0kts
10-Oct-20 07:53 33.439868 -112.029686 357 1109ft 0kts
10-Oct-20 07:54 33.439868 -112.029686 357 1109ft 0kts
10-Oct-20 07:55 33.440803 -112.021872 92 1186ft 80kts
10-Oct-20 07:56 33.427680 -111.999098 143 1998ft 97kts
10-Oct-20 07:57 33.405762 -111.978750 145 2756ft 101kts
10-Oct-20 07:58 33.383931 -111.957230 144 3486ft 102kts
10-Oct-20 07:59 33.360821 -111.936036 142 4101ft 106kts
10-Oct-20 08:00 33.337354 -111.914389 142 4700ft 106kts
10-Oct-20 08:01 33.313644 -111.893907 165 5295ft 105kts
10-Oct-20 08:02 33.285175 -111.888831 171 5892ft 103kts
10-Oct-20 08:03 33.257160 -111.884204 171 6491ft 100kts
10-Oct-20 08:04 33.231371 -111.874598 153 7087ft 97kts
10-Oct-20 08:05 33.205850 -111.878784 193 7683ft 97kts
10-Oct-20 08:06 33.178664 -111.884621 186 8287ft 100kts
10-Oct-20 08:07 33.150933 -111.887989 184 8885ft 99kts
10-Oct-20 08:08 33.119102 -111.890896 183 8954ft 127kts
10-Oct-20 08:09 33.083107 -111.893821 183 8952ft 131kts
10-Oct-20 08:10 33.046775 -111.896654 183 8952ft 131kts
10-Oct-20 08:11 33.010316 -111.899471 183 8952ft 131kts
10-Oct-20 08:12 32.973737 -111.902288 183 8952ft 131kts
10-Oct-20 08:13 32.936944 -111.905107 183 8910ft 132kts
10-Oct-20 08:14 32.900279 -111.907938 183 8910ft 132kts
10-Oct-20 08:15 32.867095 -111.892058 147 8910ft 131kts
10-Oct-20 08:16 32.836579 -111.867833 145 8910ft 131kts
10-Oct-20 08:17 32.806534 -111.843152 144 8910ft 131kts
10-Oct-20 08:18 32.776400 -111.818234 144 8910ft 131kts
10-Oct-20 08:19 32.746349 -111.793372 144 8910ft 131kts
10-Oct-20 08:20 32.716369 -111.768585 144 8910ft 131kts
10-Oct-20 08:21 32.686256 -111.743703 144 8910ft 131kts
10-Oct-20 08:22 32.656275 -111.718948 144 8910ft 131kts
10-Oct-20 08:23 32.626160 -111.694106 144 8910ft 131kts
10-Oct-20 08:24 32.596140 -111.669363 144 8910ft 131kts
10-Oct-20 08:25 32.565989 -111.644534 144 8910ft 131kts
10-Oct-20 08:26 32.540195 -111.614324 127 8910ft 131kts
10-Oct-20 08:27 32.518061 -111.579763 126 8910ft 131kts
10-Oct-20 08:28 32.496072 -111.544974 126 8910ft 131kts
10-Oct-20 08:29 32.474142 -111.510187 126 8910ft 131kts
10-Oct-20 08:30 32.452203 -111.475427 126 8910ft 131kts
10-Oct-20 08:31 32.430266 -111.440706 126 8910ft 132kts
10-Oct-20 08:32 32.408253 -111.405898 126 8910ft 132kts
10-Oct-20 08:33 32.386295 -111.371283 126 8910ft 132kts
10-Oct-20 08:34 32.368265 -111.334282 111 8906ft 131kts
10-Oct-20 08:35 32.335478 -111.320640 180 8909ft 131kts
10-Oct-20 08:36 32.299187 -111.324064 182 8909ft 131kts
10-Oct-20 08:37 32.263838 -111.325642 182 8907ft 119kts
10-Oct-20 08:38 32.232786 -111.315316 168 8909ft 114kts
10-Oct-20 08:39 32.201588 -111.309109 171 8909ft 113kts
10-Oct-20 08:40 32.168598 -111.303135 169 8242ft 129kts
10-Oct-20 08:41 32.134430 -111.288394 158 7145ft 132kts
10-Oct-20 08:42 32.100846 -111.272575 158 6247ft 120kts
10-Oct-20 08:43 32.068669 -111.257405 158 5751ft 127kts
10-Oct-20 08:44 32.038849 -111.243363 158 5731ft 110kts
10-Oct-20 08:45 32.011594 -111.228103 130 5732ft 107kts
10-Oct-20 08:46 31.997706 -111.197055 113 5732ft 107kts
10-Oct-20 08:47 31.986058 -111.164738 112 5732ft 107kts
10-Oct-20 08:48 31.974664 -111.132768 112 5732ft 107kts
10-Oct-20 08:49 31.981587 -111.102918 53 5585ft 95kts
10-Oct-20 08:50 31.999405 -111.082377 38 5121ft 95kts
10-Oct-20 08:51 32.020051 -111.062345 42 4764ft 98kts
10-Oct-20 08:52 32.039909 -111.040994 39 4398ft 82kts
10-Oct-20 08:53 32.055536 -111.024541 41 4287ft 86kts
10-Oct-20 08:54 32.072440 -111.005717 39 3876ft 83kts
10-Oct-20 08:55 32.090057 -110.987526 43 3314ft 84kts
10-Oct-20 08:56 32.107334 -110.970100 37 2930ft 75kts
10-Oct-20 08:57 32.122097 -110.953231 44 2566ft 45kts
10-Oct-20 08:58 32.122935 -110.950600 133 2571ft 0kts
10-Oct-20 08:59 32.122935 -110.950600 133 2571ft 0kts
10-Oct-20 09:00 32.123224 -110.949332 42 2573ft 0kts
10-Oct-20 09:01 32.125512 -110.946647 39 2572ft 24kts

Navigation Log

Ident Type
Flight plan parsing failed, navigation log unavailable